Time;durP1;ratioP1;P1;durP2;ratioP2;P2;SDS_P1;SDS_P2;PMS_P1;PMS_P2;Temp;Humidity;BMP_temperature;BMP_pressure;BME280_temperature;BME280_humidity;BME280_pressure;Samples;Min_cycle;Max_cycle;Signal;HPM_P1;HPM_P2
2022/02/19 00:00:26;;;;;;;;;;;23.60;45.50;;;;;;1489098;80;719;-70
2022/02/19 00:02:28;;;;;;;;;;;23.60;45.50;;;;;;1488973;80;733;-70
2022/02/19 00:04:30;;;;;;;;;;;23.60;45.50;;;;;;1489122;80;1133;-70
2022/02/19 00:06:37;;;;;;;;;;;23.60;45.50;;;;;;1494787;78;812;-70
2022/02/19 00:08:36;;;;;;;;;;;23.70;45.60;;;;;;1509048;79;1472;-70
2022/02/19 00:10:37;;;;;;;;;;;23.60;45.50;;;;;;1510856;79;804;-70
2022/02/19 00:12:39;;;;;;;;;;;23.70;45.70;;;;;;1510622;79;1938;-71
2022/02/19 00:14:41;;;;;;;;;;;23.70;45.60;;;;;;1510835;78;1110;-72
2022/02/19 00:16:43;;;;;;;;;;;23.60;45.50;;;;;;1510734;79;724;-75
2022/02/19 00:18:45;;;;;;;;;;;23.60;45.50;;;;;;1510605;79;735;-70
2022/02/19 00:20:47;;;;;;;;;;;23.70;45.50;;;;;;1510724;78;813;-69
2022/02/19 00:22:49;;;;;;;;;;;23.60;45.50;;;;;;1510853;79;725;-70
2022/02/19 00:24:51;;;;;;;;;;;23.70;45.60;;;;;;1510627;79;1124;-70
2022/02/19 00:26:54;;;;;;;;;;;23.60;45.50;;;;;;1510707;79;771;-70
2022/02/19 00:28:56;;;;;;;;;;;23.60;45.50;;;;;;1510721;78;724;-73
2022/02/19 00:30:58;;;;;;;;;;;23.60;45.50;;;;;;1510682;79;705;-73
2022/02/19 00:33:00;;;;;;;;;;;23.60;45.50;;;;;;1510701;79;1933;-71
2022/02/19 00:35:02;;;;;;;;;;;23.60;45.50;;;;;;1510618;79;1088;-69
2022/02/19 00:37:04;;;;;;;;;;;23.60;45.50;;;;;;1513390;78;798;-69
2022/02/19 00:39:06;;;;;;;;;;;23.60;45.60;;;;;;1513874;78;706;-69
2022/02/19 00:41:08;;;;;;;;;;;23.60;45.50;;;;;;1513770;78;729;-70
2022/02/19 00:43:10;;;;;;;;;;;23.60;45.50;;;;;;1513302;78;736;-69
2022/02/19 00:45:12;;;;;;;;;;;23.60;45.50;;;;;;1510732;79;1072;-70
2022/02/19 00:47:14;;;;;;;;;;;23.60;45.60;;;;;;1510559;79;704;-69
2022/02/19 00:49:16;;;;;;;;;;;23.60;45.60;;;;;;1510921;78;725;-70
2022/02/19 00:51:18;;;;;;;;;;;23.60;45.60;;;;;;1513789;78;1925;-70
2022/02/19 00:53:20;;;;;;;;;;;23.60;45.60;;;;;;1513846;78;646;-70
2022/02/19 00:55:22;;;;;;;;;;;23.60;45.60;;;;;;1513839;78;822;-72
2022/02/19 00:57:24;;;;;;;;;;;23.60;45.60;;;;;;1513764;78;715;-68
2022/02/19 00:59:26;;;;;;;;;;;23.60;45.60;;;;;;1493533;77;735;-72
2022/02/19 01:01:28;;;;;;;;;;;23.60;45.60;;;;;;1487912;79;803;-72
2022/02/19 01:03:31;;;;;;;;;;;23.60;45.50;;;;;;1487778;80;1099;-70
2022/02/19 01:05:33;;;;;;;;;;;23.60;45.60;;;;;;1487825;80;725;-70
2022/02/19 01:07:35;;;;;;;;;;;23.60;45.60;;;;;;1505796;78;761;-73
2022/02/19 01:09:37;;;;;;;;;;;23.60;45.60;;;;;;1510778;79;664;-73
2022/02/19 01:11:39;;;;;;;;;;;23.60;45.60;;;;;;1510750;79;1935;-73
2022/02/19 01:13:41;;;;;;;;;;;23.60;45.60;;;;;;1510547;79;1255;-70
2022/02/19 01:15:43;;;;;;;;;;;23.60;45.60;;;;;;1511454;78;776;-71
2022/02/19 01:17:45;;;;;;;;;;;23.60;45.60;;;;;;1513950;78;737;-69
2022/02/19 01:19:47;;;;;;;;;;;23.60;45.60;;;;;;1513592;78;786;-69
2022/02/19 01:21:48;;;;;;;;;;;23.60;45.70;;;;;;1513920;78;749;-71
2022/02/19 01:23:50;;;;;;;;;;;23.60;45.70;;;;;;1513829;78;1124;-68
2022/02/19 01:25:52;;;;;;;;;;;23.60;45.70;;;;;;1513729;78;801;-71
2022/02/19 01:27:54;;;;;;;;;;;23.60;45.70;;;;;;1513706;78;732;-69
2022/02/19 01:29:58;;;;;;;;;;;23.60;45.70;;;;;;1513822;78;816;-72
2022/02/19 01:31:59;;;;;;;;;;;23.60;45.70;;;;;;1513758;78;1962;-69
2022/02/19 01:34:01;;;;;;;;;;;23.60;45.70;;;;;;1513928;78;1120;-69
2022/02/19 01:36:03;;;;;;;;;;;23.60;45.70;;;;;;1513696;78;725;-69
2022/02/19 01:38:05;;;;;;;;;;;23.60;45.70;;;;;;1513588;78;721;-69
2022/02/19 01:40:07;;;;;;;;;;;23.60;45.70;;;;;;1506229;77;789;-70
2022/02/19 01:42:09;;;;;;;;;;;23.60;45.70;;;;;;1512227;77;747;-68
2022/02/19 01:44:11;;;;;;;;;;;23.60;45.60;;;;;;1513049;78;1137;-69
2022/02/19 01:46:13;;;;;;;;;;;23.60;45.70;;;;;;1513690;78;748;-69
2022/02/19 01:48:16;;;;;;;;;;;23.50;45.60;;;;;;1513838;78;790;-69
2022/02/19 01:50:17;;;;;;;;;;;23.60;45.70;;;;;;1513475;78;646;-70
2022/02/19 01:52:19;;;;;;;;;;;23.60;45.70;;;;;;1513666;78;1945;-71
2022/02/19 01:54:21;;;;;;;;;;;23.60;45.70;;;;;;1513815;78;1124;-72
2022/02/19 01:56:23;;;;;;;;;;;23.50;45.70;;;;;;1512039;78;767;-69
2022/02/19 01:58:25;;;;;;;;;;;23.50;45.70;;;;;;1509695;77;745;-69
2022/02/19 02:00:27;;;;;;;;;;;23.50;45.70;;;;;;1506685;79;726;-69
2022/02/19 02:02:29;;;;;;;;;;;23.60;45.70;;;;;;1506699;79;830;-68
2022/02/19 02:04:31;;;;;;;;;;;23.50;45.70;;;;;;1506565;79;1203;-70
2022/02/19 02:06:33;;;;;;;;;;;23.50;45.70;;;;;;1505771;79;761;-70
2022/02/19 02:08:35;;;;;;;;;;;23.50;45.70;;;;;;1503430;79;782;-70
2022/02/19 02:10:37;;;;;;;;;;;23.50;45.70;;;;;;1503713;79;668;-70
2022/02/19 02:12:39;;;;;;;;;;;23.60;45.70;;;;;;1503539;79;1924;-70
2022/02/19 02:14:41;;;;;;;;;;;23.50;45.70;;;;;;1503676;77;1074;-70
2022/02/19 02:16:43;;;;;;;;;;;23.50;45.70;;;;;;1522704;77;728;-70
2022/02/19 02:18:45;;;;;;;;;;;23.50;45.70;;;;;;1503670;79;753;-70
2022/02/19 02:20:47;;;;;;;;;;;23.50;45.70;;;;;;1506054;79;734;-71
2022/02/19 02:22:49;;;;;;;;;;;23.50;45.70;;;;;;1506890;79;787;-74
2022/02/19 02:24:51;;;;;;;;;;;23.50;45.70;;;;;;1506618;79;1094;-69
2022/02/19 02:26:53;;;;;;;;;;;23.50;45.70;;;;;;1506683;79;667;-69
2022/02/19 02:28:55;;;;;;;;;;;23.50;45.80;;;;;;1504287;79;762;-69
2022/02/19 02:30:56;;;;;;;;;;;23.50;45.70;;;;;;1503649;79;729;-69
2022/02/19 02:33:00;;;;;;;;;;;23.50;45.80;;;;;;1503643;79;1949;-68
2022/02/19 02:35:02;;;;;;;;;;;23.50;45.80;;;;;;1502719;79;2013;-72
2022/02/19 02:37:04;;;;;;;;;;;23.50;45.70;;;;;;1505835;79;819;-69
2022/02/19 02:39:06;;;;;;;;;;;23.60;45.80;;;;;;1506773;79;783;-68
2022/02/19 02:41:08;;;;;;;;;;;23.50;45.70;;;;;;1506836;79;707;-68
2022/02/19 02:43:09;;;;;;;;;;;23.50;45.80;;;;;;1506687;79;908;-68
2022/02/19 02:45:11;;;;;;;;;;;23.50;45.80;;;;;;1504473;79;1124;-69
2022/02/19 02:47:13;;;;;;;;;;;23.50;45.80;;;;;;1503593;79;765;-70
2022/02/19 02:49:15;;;;;;;;;;;23.50;45.80;;;;;;1503945;79;733;-71
2022/02/19 02:51:17;;;;;;;;;;;23.40;45.70;;;;;;1503654;79;758;-72
2022/02/19 02:53:19;;;;;;;;;;;23.50;45.80;;;;;;1503454;79;1925;-68
2022/02/19 02:55:21;;;;;;;;;;;23.50;45.80;;;;;;1503995;79;1235;-68
2022/02/19 02:57:23;;;;;;;;;;;23.50;45.80;;;;;;1505260;79;809;-68
2022/02/19 02:59:24;;;;;;;;;;;23.50;45.80;;;;;;1503095;79;755;-69
2022/02/19 03:01:26;;;;;;;;;;;23.50;45.90;;;;;;1503752;79;720;-69
2022/02/19 03:03:28;;;;;;;;;;;23.50;45.80;;;;;;1503703;79;1194;-70
2022/02/19 03:05:30;;;;;;;;;;;23.50;45.90;;;;;;1503961;79;782;-70
2022/02/19 03:07:32;;;;;;;;;;;23.50;45.80;;;;;;1504417;79;784;-71
2022/02/19 03:09:34;;;;;;;;;;;23.40;45.70;;;;;;1503575;79;751;-71
2022/02/19 03:11:36;;;;;;;;;;;23.50;45.80;;;;;;1503640;79;756;-69
2022/02/19 03:13:38;;;;;;;;;;;23.40;45.70;;;;;;1503624;79;1937;-67
2022/02/19 03:15:40;;;;;;;;;;;23.50;45.80;;;;;;1501489;77;790;-70
2022/02/19 03:17:43;;;;;;;;;;;23.50;45.90;;;;;;1499925;77;738;-69
2022/02/19 03:19:45;;;;;;;;;;;23.40;45.70;;;;;;1503860;77;815;-69
2022/02/19 03:21:47;;;;;;;;;;;23.50;45.90;;;;;;1509971;77;736;-69
2022/02/19 03:23:49;;;;;;;;;;;23.40;45.70;;;;;;1532129;77;1151;-73
2022/02/19 03:25:51;;;;;;;;;;;23.50;45.90;;;;;;1530607;77;795;-70
2022/02/19 03:27:53;;;;;;;;;;;23.40;45.80;;;;;;1490532;79;734;-70
2022/02/19 03:29:55;;;;;;;;;;;23.50;46.00;;;;;;1472155;80;1772;-70
2022/02/19 03:31:56;;;;;;;;;;;23.50;46.00;;;;;;1503626;79;814;-72
2022/02/19 03:33:58;;;;;;;;;;;23.40;45.80;;;;;;1503487;79;1957;-70
2022/02/19 03:36:00;;;;;;;;;;;23.40;45.90;;;;;;1506224;79;771;-70
2022/02/19 03:38:02;;;;;;;;;;;23.50;46.00;;;;;;1504728;79;788;-70
2022/02/19 03:40:06;;;;;;;;;;;23.60;46.00;;;;;;1499903;79;684;-73
2022/02/19 03:42:08;;;;;;;;;;;23.50;45.90;;;;;;1488283;79;741;-69
2022/02/19 03:44:10;;;;;;;;;;;23.60;45.80;;;;;;1490355;80;1154;-70
2022/02/19 03:46:12;;;;;;;;;;;23.70;46.00;;;;;;1503842;79;749;-68
2022/02/19 03:48:14;;;;;;;;;;;23.70;45.80;;;;;;1506730;79;744;-69
2022/02/19 03:50:17;;;;;;;;;;;23.80;45.80;;;;;;1507507;77;816;-68
2022/02/19 03:52:20;;;;;;;;;;;23.90;45.70;;;;;;1505005;78;1919;-70
2022/02/19 03:54:21;;;;;;;;;;;23.90;45.60;;;;;;1506770;78;1088;-69
2022/02/19 03:56:23;;;;;;;;;;;23.90;45.50;;;;;;1506584;79;708;-70
2022/02/19 03:58:25;;;;;;;;;;;23.90;45.30;;;;;;1504537;79;819;-72
2022/02/19 04:00:27;;;;;;;;;;;24.00;45.30;;;;;;1503657;79;725;-68
2022/02/19 04:02:29;;;;;;;;;;;24.00;45.20;;;;;;1503695;79;787;-69
2022/02/19 04:04:31;;;;;;;;;;;24.00;45.20;;;;;;1503688;79;1180;-69
2022/02/19 04:06:33;;;;;;;;;;;24.00;45.30;;;;;;1503541;79;756;-69
2022/02/19 04:08:35;;;;;;;;;;;24.10;45.30;;;;;;1503753;79;752;-69
2022/02/19 04:10:37;;;;;;;;;;;24.10;45.20;;;;;;1503693;79;721;-69
2022/02/19 04:12:39;;;;;;;;;;;24.00;45.20;;;;;;1503538;79;1922;-70
2022/02/19 04:14:41;;;;;;;;;;;24.10;45.20;;;;;;1504202;79;1136;-72
2022/02/19 04:16:43;;;;;;;;;;;24.20;45.20;;;;;;1506763;79;601;-70
2022/02/19 04:18:45;;;;;;;;;;;24.10;45.10;;;;;;1506598;79;763;-72
2022/02/19 04:20:47;;;;;;;;;;;24.20;45.00;;;;;;1504052;79;699;-74
2022/02/19 04:22:48;;;;;;;;;;;24.20;44.90;;;;;;1503564;79;839;-70
2022/02/19 04:24:50;;;;;;;;;;;24.20;44.80;;;;;;1503614;79;1102;-70
2022/02/19 04:26:52;;;;;;;;;;;24.20;44.80;;;;;;1505654;78;778;-70
2022/02/19 04:28:54;;;;;;;;;;;24.30;44.90;;;;;;1506419;79;807;-70
2022/02/19 04:30:56;;;;;;;;;;;24.20;44.70;;;;;;1506790;79;714;-70
2022/02/19 04:32:58;;;;;;;;;;;24.30;44.80;;;;;;1506749;79;1941;-70
2022/02/19 04:35:00;;;;;;;;;;;24.30;44.70;;;;;;1506579;79;1157;-71
2022/02/19 04:37:02;;;;;;;;;;;24.30;44.70;;;;;;1506839;79;589;-69
2022/02/19 04:39:03;;;;;;;;;;;24.30;44.70;;;;;;1506584;79;737;-69
2022/02/19 04:41:05;;;;;;;;;;;24.30;44.70;;;;;;1506587;79;794;-70
2022/02/19 04:43:07;;;;;;;;;;;24.30;44.60;;;;;;1506705;79;740;-70
2022/02/19 04:45:10;;;;;;;;;;;24.20;44.60;;;;;;1506571;79;1145;-70
2022/02/19 04:47:12;;;;;;;;;;;24.30;44.80;;;;;;1505719;77;735;-71
2022/02/19 04:49:13;;;;;;;;;;;24.30;44.90;;;;;;1507203;77;690;-70
2022/02/19 04:51:15;;;;;;;;;;;24.30;45.00;;;;;;1505415;77;817;-70
2022/02/19 04:53:17;;;;;;;;;;;24.20;44.80;;;;;;1505640;77;1942;-72
2022/02/19 04:55:19;;;;;;;;;;;24.30;44.90;;;;;;1505526;77;1116;-72
2022/02/19 04:57:21;;;;;;;;;;;24.30;44.80;;;;;;1505290;77;1055;-72
2022/02/19 04:59:23;;;;;;;;;;;24.30;44.80;;;;;;1503665;77;793;-69
2022/02/19 05:01:25;;;;;;;;;;;24.30;44.70;;;;;;1503598;77;740;-71
2022/02/19 05:03:26;;;;;;;;;;;24.30;44.70;;;;;;1501627;77;1162;-70
2022/02/19 05:05:28;;;;;;;;;;;24.30;44.60;;;;;;1503580;77;753;-69
2022/02/19 05:07:30;;;;;;;;;;;24.30;44.60;;;;;;1505218;77;726;-69
2022/02/19 05:09:32;;;;;;;;;;;24.30;44.60;;;;;;1506452;77;677;-70
2022/02/19 05:11:34;;;;;;;;;;;24.30;44.70;;;;;;1506449;77;717;-71
2022/02/19 05:13:36;;;;;;;;;;;24.30;44.70;;;;;;1505828;77;1937;-70
2022/02/19 05:15:38;;;;;;;;;;;24.30;44.70;;;;;;1505930;77;724;-70
2022/02/19 05:17:49;;;;;;;;;;;24.30;44.70;;;;;;1506127;77;749;-71
2022/02/19 05:19:51;;;;;;;;;;;24.30;44.70;;;;;;1503519;77;795;-69
2022/02/19 05:21:53;;;;;;;;;;;24.30;44.70;;;;;;1506419;77;752;-71
2022/02/19 05:23:55;;;;;;;;;;;24.30;44.70;;;;;;1506135;77;1160;-74
2022/02/19 05:25:56;;;;;;;;;;;24.30;44.60;;;;;;1506176;77;723;-69
2022/02/19 05:27:58;;;;;;;;;;;24.30;44.50;;;;;;1474284;79;754;-69
2022/02/19 05:30:00;;;;;;;;;;;24.30;44.50;;;;;;1506121;77;828;-67
2022/02/19 05:32:02;;;;;;;;;;;24.30;44.50;;;;;;1506333;77;906;-73
2022/02/19 05:34:04;;;;;;;;;;;24.40;44.40;;;;;;1506305;77;1933;-69
2022/02/19 05:36:06;;;;;;;;;;;24.40;44.40;;;;;;1505908;77;740;-69
2022/02/19 05:38:08;;;;;;;;;;;24.30;44.40;;;;;;1501170;77;752;-68
2022/02/19 05:40:10;;;;;;;;;;;24.30;44.40;;;;;;1500247;79;746;-70
2022/02/19 05:42:12;;;;;;;;;;;24.40;44.40;;;;;;1501556;78;859;-73
2022/02/19 05:44:14;;;;;;;;;;;24.30;44.50;;;;;;1494820;79;1178;-69
2022/02/19 05:46:16;;;;;;;;;;;24.30;44.60;;;;;;1503487;79;706;-70
2022/02/19 05:48:18;;;;;;;;;;;24.50;44.60;;;;;;1503616;79;738;-69
2022/02/19 05:50:20;;;;;;;;;;;24.30;44.50;;;;;;1503886;79;850;-69
2022/02/19 05:52:22;;;;;;;;;;;24.30;44.60;;;;;;1503499;79;719;-70
2022/02/19 05:54:24;;;;;;;;;;;24.40;44.50;;;;;;1503652;79;1905;-69
2022/02/19 05:56:26;;;;;;;;;;;24.40;44.50;;;;;;1503778;79;779;-69
2022/02/19 05:58:28;;;;;;;;;;;24.40;44.40;;;;;;1504127;79;812;-69
2022/02/19 06:00:29;;;;;;;;;;;24.40;44.40;;;;;;1506875;79;671;-69
2022/02/19 06:02:31;;;;;;;;;;;24.50;44.40;;;;;;1506555;79;710;-70
2022/02/19 06:04:33;;;;;;;;;;;24.40;44.40;;;;;;1506849;79;1130;-73
2022/02/19 06:06:35;;;;;;;;;;;24.40;44.40;;;;;;1505760;79;786;-70
2022/02/19 06:08:37;;;;;;;;;;;24.30;44.60;;;;;;1503437;79;698;-69
2022/02/19 06:10:39;;;;;;;;;;;24.30;44.80;;;;;;1503694;79;846;-69
2022/02/19 06:12:41;;;;;;;;;;;24.30;44.80;;;;;;1503745;79;823;-69
2022/02/19 06:14:43;;;;;;;;;;;24.30;44.90;;;;;;1503516;79;1945;-69
2022/02/19 06:16:45;;;;;;;;;;;24.30;44.70;;;;;;1503657;79;760;-69
2022/02/19 06:18:47;;;;;;;;;;;24.40;44.60;;;;;;1506487;79;677;-69
2022/02/19 06:20:49;;;;;;;;;;;24.40;44.40;;;;;;1503874;79;766;-68
2022/02/19 06:22:51;;;;;;;;;;;24.50;44.30;;;;;;1503738;79;579;-69
2022/02/19 06:24:53;;;;;;;;;;;24.50;44.30;;;;;;1503517;79;1148;-71
2022/02/19 06:26:55;;;;;;;;;;;24.50;44.20;;;;;;1523268;77;763;-69
2022/02/19 06:28:56;;;;;;;;;;;24.50;44.10;;;;;;1526791;77;790;-68
2022/02/19 06:30:58;;;;;;;;;;;24.50;44.10;;;;;;1503626;79;877;-69
2022/02/19 06:33:01;;;;;;;;;;;24.50;44.10;;;;;;1503658;79;767;-68
2022/02/19 06:35:03;;;;;;;;;;;24.50;44.00;;;;;;1503597;79;1906;-69
2022/02/19 06:37:05;;;;;;;;;;;24.40;43.90;;;;;;1504555;79;752;-69
2022/02/19 06:39:07;;;;;;;;;;;24.40;43.90;;;;;;1506875;79;731;-69
2022/02/19 06:41:09;;;;;;;;;;;24.50;44.00;;;;;;1506656;79;779;-69
2022/02/19 06:43:11;;;;;;;;;;;24.40;43.80;;;;;;1506654;79;725;-68
2022/02/19 06:45:13;;;;;;;;;;;24.50;43.90;;;;;;1506344;77;1131;-69
2022/02/19 06:47:14;;;;;;;;;;;24.50;43.80;;;;;;1506188;77;757;-69
2022/02/19 06:49:16;;;;;;;;;;;24.50;43.80;;;;;;1503531;77;741;-69
2022/02/19 06:51:18;;;;;;;;;;;24.50;43.80;;;;;;1505837;77;733;-71
2022/02/19 06:53:20;;;;;;;;;;;24.50;43.70;;;;;;1505165;77;798;-69
2022/02/19 06:55:22;;;;;;;;;;;24.50;43.60;;;;;;1504378;77;1957;-69
2022/02/19 06:57:24;;;;;;;;;;;24.50;43.60;;;;;;1506110;77;939;-69
2022/02/19 06:59:26;;;;;;;;;;;24.50;43.60;;;;;;1505250;79;829;-69
2022/02/19 07:01:28;;;;;;;;;;;24.50;43.60;;;;;;1491911;79;727;-69
2022/02/19 07:03:30;;;;;;;;;;;24.50;43.60;;;;;;1494684;77;1191;-69
2022/02/19 07:05:32;;;;;;;;;;;24.50;43.50;;;;;;1506397;77;712;-70
2022/02/19 07:07:35;;;;;;;;;;;24.50;43.50;;;;;;1505877;77;728;-69
2022/02/19 07:09:37;;;;;;;;;;;24.50;43.50;;;;;;1506487;77;538;-68
2022/02/19 07:11:39;;;;;;;;;;;24.50;43.50;;;;;;1505994;77;718;-69
2022/02/19 07:13:41;;;;;;;;;;;24.50;43.50;;;;;;1506007;77;1930;-69
2022/02/19 07:15:43;;;;;;;;;;;24.50;43.50;;;;;;1501963;77;758;-72
2022/02/19 07:17:46;;;;;;;;;;;24.50;43.50;;;;;;1506373;77;731;-69
2022/02/19 07:19:48;;;;;;;;;;;24.50;43.50;;;;;;1505756;77;730;-70
2022/02/19 07:21:50;;;;;;;;;;;24.50;43.40;;;;;;1506200;77;739;-71
2022/02/19 07:23:52;;;;;;;;;;;24.50;43.40;;;;;;1506321;77;1151;-69
2022/02/19 07:25:54;;;;;;;;;;;24.50;43.50;;;;;;1506136;77;779;-68
2022/02/19 07:27:56;;;;;;;;;;;24.50;43.40;;;;;;1505609;77;788;-69
2022/02/19 07:29:58;;;;;;;;;;;24.50;43.40;;;;;;1505885;77;783;-69
2022/02/19 07:32:00;;;;;;;;;;;24.50;43.40;;;;;;1502338;79;749;-68
2022/02/19 07:34:01;;;;;;;;;;;24.50;43.40;;;;;;1499497;79;1938;-68
2022/02/19 07:36:03;;;;;;;;;;;24.50;43.40;;;;;;1503478;79;708;-69
2022/02/19 07:38:05;;;;;;;;;;;24.50;43.40;;;;;;1503569;79;789;-70
2022/02/19 07:40:07;;;;;;;;;;;24.50;43.40;;;;;;1504793;77;752;-72
2022/02/19 07:42:09;;;;;;;;;;;24.50;43.40;;;;;;1503936;77;728;-71
2022/02/19 07:44:11;;;;;;;;;;;24.50;43.40;;;;;;1505358;77;1165;-68
2022/02/19 07:46:13;;;;;;;;;;;24.50;43.40;;;;;;1505145;77;738;-68
2022/02/19 07:48:15;;;;;;;;;;;24.50;43.40;;;;;;1505526;77;802;-68
2022/02/19 07:59:36;;;;;;;;;;;24.50;43.40;;;;;;1507497;77;1669;-68
2022/02/19 08:01:37;;;;;;;;;;;24.40;43.40;;;;;;1497221;78;722;-68
2022/02/19 08:03:40;;;;;;;;;;;24.50;43.50;;;;;;1499271;77;1174;-72
2022/02/19 08:05:42;;;;;;;;;;;24.40;43.40;;;;;;1495364;79;722;-67
2022/02/19 08:07:44;;;;;;;;;;;24.40;43.40;;;;;;1488359;78;779;-68
2022/02/19 08:09:46;;;;;;;;;;;24.50;43.50;;;;;;1482921;79;710;-68
2022/02/19 08:11:47;;;;;;;;;;;24.40;43.40;;;;;;1485888;79;715;-72
2022/02/19 08:13:49;;;;;;;;;;;24.40;43.40;;;;;;1487240;79;1157;-69
2022/02/19 08:15:51;;;;;;;;;;;24.40;43.40;;;;;;1506102;79;1961;-68
2022/02/19 08:17:53;;;;;;;;;;;24.40;43.40;;;;;;1503620;77;783;-68
2022/02/19 08:19:55;;;;;;;;;;;24.50;43.50;;;;;;1505735;77;786;-68
2022/02/19 08:21:57;;;;;;;;;;;24.60;43.50;;;;;;1502334;77;766;-68
2022/02/19 08:23:59;;;;;;;;;;;24.30;43.40;;;;;;1503577;77;1122;-69
2022/02/19 08:26:01;;;;;;;;;;;24.50;43.50;;;;;;1502443;77;687;-68
2022/02/19 08:28:05;;;;;;;;;;;24.40;43.40;;;;;;1497601;79;703;-68
2022/02/19 08:30:07;;;;;;;;;;;24.50;43.50;;;;;;1483991;79;1611;-70
2022/02/19 08:32:09;;;;;;;;;;;24.40;43.50;;;;;;1485560;77;695;-69
2022/02/19 08:34:11;;;;;;;;;;;24.40;43.50;;;;;;1506946;77;1922;-68
2022/02/19 08:36:13;;;;;;;;;;;24.40;43.50;;;;;;1501069;77;787;-70
2022/02/19 08:38:15;;;;;;;;;;;24.40;43.60;;;;;;1496739;77;753;-68
2022/02/19 08:40:17;;;;;;;;;;;24.40;43.60;;;;;;1502402;77;795;-68
2022/02/19 08:42:18;;;;;;;;;;;24.40;43.60;;;;;;1505482;77;881;-70
2022/02/19 08:44:20;;;;;;;;;;;24.40;43.60;;;;;;1503117;77;1163;-68
2022/02/19 08:46:23;;;;;;;;;;;24.40;43.60;;;;;;1505092;77;781;-69
2022/02/19 08:48:25;;;;;;;;;;;24.40;43.50;;;;;;1505819;77;657;-69
2022/02/19 08:50:27;;;;;;;;;;;24.30;43.50;;;;;;1503327;77;720;-72
2022/02/19 08:52:29;;;;;;;;;;;24.50;43.70;;;;;;1506179;77;632;-70
2022/02/19 08:54:31;;;;;;;;;;;24.40;43.60;;;;;;1495753;79;1941;-71
2022/02/19 08:56:33;;;;;;;;;;;24.50;43.70;;;;;;1503497;78;677;-70
2022/02/19 08:58:35;;;;;;;;;;;24.40;43.70;;;;;;1503631;79;674;-71
2022/02/19 09:00:36;;;;;;;;;;;24.40;43.60;;;;;;1503732;79;779;-71
2022/02/19 09:02:39;;;;;;;;;;;24.50;43.70;;;;;;1503510;79;711;-72
2022/02/19 09:04:41;;;;;;;;;;;24.50;43.60;;;;;;1503595;79;1092;-69
2022/02/19 09:06:43;;;;;;;;;;;24.50;43.60;;;;;;1503466;79;815;-70
2022/02/19 09:08:46;;;;;;;;;;;24.40;43.60;;;;;;1505271;77;774;-73
2022/02/19 09:10:48;;;;;;;;;;;24.50;43.60;;;;;;1506423;77;773;-70
2022/02/19 09:12:49;;;;;;;;;;;24.50;43.60;;;;;;1506455;77;785;-69
2022/02/19 09:14:51;;;;;;;;;;;24.50;43.60;;;;;;1506015;77;1950;-71
2022/02/19 09:16:53;;;;;;;;;;;24.50;43.70;;;;;;1501077;77;786;-74
2022/02/19 09:18:56;;;;;;;;;;;24.50;43.90;;;;;;1497603;79;841;-69
2022/02/19 09:20:57;;;;;;;;;;;24.50;44.20;;;;;;1504617;79;733;-73
2022/02/19 09:22:59;;;;;;;;;;;24.50;44.60;;;;;;1502197;77;848;-69
2022/02/19 09:25:01;;;;;;;;;;;24.50;44.70;;;;;;1500438;77;1141;-70
2022/02/19 09:27:03;;;;;;;;;;;24.50;44.80;;;;;;1500075;77;804;-69
2022/02/19 09:29:05;;;;;;;;;;;24.50;44.60;;;;;;1504142;79;704;-71
2022/02/19 09:31:07;;;;;;;;;;;24.60;44.40;;;;;;1503217;78;801;-71
2022/02/19 09:33:09;;;;;;;;;;;24.60;44.30;;;;;;1500492;78;736;-71
2022/02/19 09:35:12;;;;;;;;;;;24.60;44.20;;;;;;1497854;77;1961;-70
2022/02/19 09:37:14;;;;;;;;;;;24.70;43.90;;;;;;1504441;79;598;-71
2022/02/19 09:39:17;;;;;;;;;;;24.80;43.60;;;;;;1500276;79;757;-71
2022/02/19 09:41:18;;;;;;;;;;;24.80;43.30;;;;;;1503916;78;745;-70
2022/02/19 09:43:20;;;;;;;;;;;24.90;43.10;;;;;;1501558;77;719;-69
2022/02/19 09:45:28;;;;;;;;;;;25.00;42.70;;;;;;1504431;78;1183;-70
2022/02/19 09:47:26;;;;;;;;;;;24.90;42.40;;;;;;1498916;77;1583;-71
2022/02/19 09:49:28;;;;;;;;;;;25.00;42.30;;;;;;1499537;77;738;-70
2022/02/19 09:51:30;;;;;;;;;;;25.00;42.20;;;;;;1472278;79;718;-71
2022/02/19 09:53:32;;;;;;;;;;;24.90;42.20;;;;;;1502353;77;1181;-71
2022/02/19 09:55:34;;;;;;;;;;;24.90;42.10;;;;;;1503514;77;1924;-72
2022/02/19 09:57:36;;;;;;;;;;;24.80;42.00;;;;;;1499659;77;756;-71
2022/02/19 09:59:37;;;;;;;;;;;24.90;42.10;;;;;;1501794;77;725;-71
2022/02/19 10:01:40;;;;;;;;;;;24.90;42.00;;;;;;1499967;77;755;-75
2022/02/19 10:03:42;;;;;;;;;;;24.90;42.00;;;;;;1502746;77;1144;-70
2022/02/19 10:05:44;;;;;;;;;;;24.90;42.00;;;;;;1496991;79;767;-71
2022/02/19 10:07:47;;;;;;;;;;;24.90;42.00;;;;;;1504317;77;821;-72
2022/02/19 10:09:50;;;;;;;;;;;25.00;41.60;;;;;;1501912;79;1894;-72
2022/02/19 10:11:52;;;;;;;;;;;24.90;41.50;;;;;;1495462;77;737;-71
2022/02/19 10:13:54;;;;;;;;;;;24.90;41.50;;;;;;1503251;77;1136;-71
2022/02/19 10:15:56;;;;;;;;;;;24.90;41.40;;;;;;1504675;77;1945;-72
2022/02/19 10:17:57;;;;;;;;;;;24.90;41.60;;;;;;1500156;79;717;-72
2022/02/19 10:20:02;;;;;;;;;;;24.90;41.50;;;;;;1505196;79;737;-71
2022/02/19 10:22:11;;;;;;;;;;;24.90;41.50;;;;;;1503541;79;761;-71
2022/02/19 10:24:12;;;;;;;;;;;25.00;41.50;;;;;;1503374;79;1134;-71
2022/02/19 10:26:15;;;;;;;;;;;24.90;41.40;;;;;;1513569;77;764;-72
2022/02/19 10:28:17;;;;;;;;;;;24.90;41.40;;;;;;1513632;77;822;-72
2022/02/19 10:30:20;;;;;;;;;;;24.90;41.40;;;;;;1503421;79;795;-70
2022/02/19 10:32:25;;;;;;;;;;;24.90;41.30;;;;;;1503487;79;737;-71
2022/02/19 10:34:26;;;;;;;;;;;24.90;41.20;;;;;;1503662;79;1126;-73
2022/02/19 10:36:28;;;;;;;;;;;24.90;41.20;;;;;;1503317;79;1949;-71
2022/02/19 10:38:30;;;;;;;;;;;24.90;41.30;;;;;;1472127;80;716;-71
2022/02/19 10:40:33;;;;;;;;;;;24.90;41.20;;;;;;1503557;79;717;-74
2022/02/19 10:42:36;;;;;;;;;;;24.90;41.20;;;;;;1503541;79;722;-72
2022/02/19 10:44:38;;;;;;;;;;;25.00;41.20;;;;;;1503689;79;1157;-72
2022/02/19 10:46:40;;;;;;;;;;;25.00;41.00;;;;;;1504275;79;744;-71
2022/02/19 10:48:42;;;;;;;;;;;25.00;41.00;;;;;;1506869;79;729;-71
2022/02/19 10:50:45;;;;;;;;;;;25.10;41.00;;;;;;1505657;77;794;-71
2022/02/19 10:52:54;;;;;;;;;;;25.10;40.60;;;;;;1504748;79;714;-69
2022/02/19 10:55:06;;;;;;;;;;;25.10;40.40;;;;;;1500303;77;1946;-70
2022/02/19 10:57:11;;;;;;;;;;;25.10;40.20;;;;;;1503101;77;727;-72
2022/02/19 10:59:15;;;;;;;;;;;25.10;40.10;;;;;;1499633;77;726;-72
2022/02/19 11:01:20;;;;;;;;;;;25.10;40.10;;;;;;1487635;78;1447;-71
2022/02/19 11:03:22;;;;;;;;;;;25.10;40.10;;;;;;1482733;79;719;-70
2022/02/19 11:05:24;;;;;;;;;;;25.10;40.20;;;;;;1482955;79;712;-68
2022/02/19 11:07:26;;;;;;;;;;;25.00;40.10;;;;;;1493761;79;703;-69
2022/02/19 11:09:28;;;;;;;;;;;25.00;40.10;;;;;;1483537;79;725;-71
2022/02/19 11:11:29;;;;;;;;;;;25.00;40.20;;;;;;1482871;79;721;-71
2022/02/19 11:13:32;;;;;;;;;;;25.00;40.10;;;;;;1452162;80;1217;-71
2022/02/19 11:15:35;;;;;;;;;;;25.00;40.00;;;;;;1482594;79;1928;-70
2022/02/19 11:17:37;;;;;;;;;;;25.00;40.00;;;;;;1496840;79;1789;-71
2022/02/19 11:19:41;;;;;;;;;;;25.00;40.10;;;;;;1506036;79;815;-72
2022/02/19 11:21:43;;;;;;;;;;;25.00;40.10;;;;;;1506246;77;737;-70
2022/02/19 11:23:46;;;;;;;;;;;25.00;40.00;;;;;;1493966;79;1196;-70
2022/02/19 11:25:48;;;;;;;;;;;25.00;40.00;;;;;;1483984;77;697;-71
2022/02/19 11:27:53;;;;;;;;;;;25.00;40.00;;;;;;1490318;79;679;-69
2022/02/19 11:29:55;;;;;;;;;;;25.00;40.10;;;;;;1483033;79;1461;-71
2022/02/19 11:31:57;;;;;;;;;;;25.10;40.10;;;;;;1482619;79;706;-71
2022/02/19 11:34:02;;;;;;;;;;;25.00;40.00;;;;;;1482934;79;1200;-70
2022/02/19 11:36:06;;;;;;;;;;;24.90;40.10;;;;;;1484241;79;1923;-71
2022/02/19 11:38:25;;;;;;;;;;;25.00;40.20;;;;;;1484152;79;1528;-69
2022/02/19 11:40:27;;;;;;;;;;;24.80;40.30;;;;;;1483057;79;734;-71
2022/02/19 11:42:36;;;;;;;;;;;24.80;40.50;;;;;;1482860;79;694;-70
2022/02/19 11:44:38;;;;;;;;;;;24.80;40.70;;;;;;1487528;79;1198;-69
2022/02/19 11:46:39;;;;;;;;;;;24.80;40.80;;;;;;1452080;80;1134;-70
2022/02/19 11:48:43;;;;;;;;;;;24.70;41.00;;;;;;1482997;79;644;-71
2022/02/19 11:50:45;;;;;;;;;;;24.80;41.00;;;;;;1499618;77;1403;-71
2022/02/19 11:53:05;;;;;;;;;;;24.70;41.00;;;;;;1488483;79;729;-69
2022/02/19 11:55:25;;;;;;;;;;;24.80;41.30;;;;;;1482690;79;1115;-71
2022/02/19 11:57:31;;;;;;;;;;;24.70;41.30;;;;;;1500314;79;784;-69
2022/02/19 11:59:47;;;;;;;;;;;24.70;41.40;;;;;;1502750;79;1665;-71
2022/02/19 12:02:07;;;;;;;;;;;24.80;41.40;;;;;;1482944;79;804;-71
2022/02/19 12:04:13;;;;;;;;;;;24.80;41.40;;;;;;1482814;79;1190;-70
2022/02/19 12:06:16;;;;;;;;;;;24.70;41.40;;;;;;1501159;77;737;-69
2022/02/19 12:08:18;;;;;;;;;;;24.70;41.40;;;;;;1504836;79;686;-70
2022/02/19 12:10:20;;;;;;;;;;;24.70;41.50;;;;;;1495097;77;700;-70
2022/02/19 12:12:22;;;;;;;;;;;24.70;41.50;;;;;;1502867;77;726;-70
2022/02/19 12:14:34;;;;;;;;;;;24.80;41.50;;;;;;1493243;79;1173;-71
2022/02/19 12:16:39;;;;;;;;;;;24.70;41.60;;;;;;1468613;79;1939;-69
2022/02/19 12:18:49;;;;;;;;;;;24.70;41.60;;;;;;1494844;79;745;-70